Terminal Aerodrome Forecast
Issued by NWS

Home | Current Version | Previous Version | Text Only | Print | Product List | Glossary On
Versions: 1 2 3 4 5 6 7 8 9 10 11 12 13 14 15 16 17 18 19
000
FTUS44 KEPZ 301720
TAFDMN
TAF
KDMN 301720Z 3018/3118 07008KT P6SM SCT030 SCT250
     FM302000 25007KT P6SM SCT060 SCT250
     FM302200 18007KT P6SM VCTS SCT070CB SCT120 BKN250
     FM310600 VRB05KT P6SM SCT100 BKN250=

USA.gov is the U.S. government's official web portal to all federal, state and local government web resources and services.